sensor_id;sensor_type;location;lat;lon;timestamp;pressure;altitude;pressure_sealevel;temperature;humidity
72558;BME280;60583;50.094;8.748;2023-05-29T00:01:12;100614.91;;;16.48;56.49
72558;BME280;60583;50.094;8.748;2023-05-29T00:03:38;100629.44;;;16.59;56.11
72558;BME280;60583;50.094;8.748;2023-05-29T00:06:04;100648.31;;;16.71;56.43
72558;BME280;60583;50.094;8.748;2023-05-29T00:08:31;100645.75;;;16.76;56.42
72558;BME280;60583;50.094;8.748;2023-05-29T00:10:56;100636.09;;;16.56;56.88
72558;BME280;60583;50.094;8.748;2023-05-29T00:13:22;100651.03;;;16.71;57.02
72558;BME280;60583;50.094;8.748;2023-05-29T00:15:48;100649.72;;;16.73;56.92
72558;BME280;60583;50.094;8.748;2023-05-29T00:18:13;100647.25;;;16.72;56.58
72558;BME280;60583;50.094;8.748;2023-05-29T00:20:38;100654.75;;;16.70;57.40
72558;BME280;60583;50.094;8.748;2023-05-29T00:23:04;100647.97;;;16.67;57.36
72558;BME280;60583;50.094;8.748;2023-05-29T00:25:31;100643.72;;;16.59;57.18
72558;BME280;60583;50.094;8.748;2023-05-29T00:27:57;100643.38;;;16.56;57.16
72558;BME280;60583;50.094;8.748;2023-05-29T00:30:22;100635.53;;;16.54;57.34
72558;BME280;60583;50.094;8.748;2023-05-29T00:32:47;100644.44;;;16.55;57.81
72558;BME280;60583;50.094;8.748;2023-05-29T00:35:13;100639.28;;;16.53;57.80
72558;BME280;60583;50.094;8.748;2023-05-29T00:37:38;100639.28;;;16.53;57.66
72558;BME280;60583;50.094;8.748;2023-05-29T00:40:04;100640.91;;;16.54;57.64
72558;BME280;60583;50.094;8.748;2023-05-29T00:42:30;100636.97;;;16.39;58.20
72558;BME280;60583;50.094;8.748;2023-05-29T00:44:55;100623.69;;;16.14;58.60
72558;BME280;60583;50.094;8.748;2023-05-29T00:47:21;100644.44;;;16.25;58.26
72558;BME280;60583;50.094;8.748;2023-05-29T00:49:47;100638.47;;;16.23;59.12
72558;BME280;60583;50.094;8.748;2023-05-29T00:52:13;100641.63;;;16.20;57.36
72558;BME280;60583;50.094;8.748;2023-05-29T00:54:38;100632.97;;;16.18;56.75
72558;BME280;60583;50.094;8.748;2023-05-29T00:57:05;100620.41;;;16.12;57.02
72558;BME280;60583;50.094;8.748;2023-05-29T00:59:32;100615.41;;;16.16;56.67
72558;BME280;60583;50.094;8.748;2023-05-29T01:01:59;100632.19;;;16.11;58.10
72558;BME280;60583;50.094;8.748;2023-05-29T01:04:26;100633.84;;;16.12;56.97
72558;BME280;60583;50.094;8.748;2023-05-29T01:06:51;100646.00;;;16.03;58.34
72558;BME280;60583;50.094;8.748;2023-05-29T01:09:17;100640.97;;;16.07;58.86
72558;BME280;60583;50.094;8.748;2023-05-29T01:14:10;100647.75;;;16.09;59.05
72558;BME280;60583;50.094;8.748;2023-05-29T01:16:48;100648.47;;;16.16;58.43
72558;BME280;60583;50.094;8.748;2023-05-29T01:19:38;100632.69;;;16.08;58.40
72558;BME280;60583;50.094;8.748;2023-05-29T01:22:18;100628.72;;;16.11;57.93
72558;BME280;60583;50.094;8.748;2023-05-29T01:25:11;100634.44;;;16.14;58.67
72558;BME280;60583;50.094;8.748;2023-05-29T01:27:39;100626.22;;;16.09;58.76
72558;BME280;60583;50.094;8.748;2023-05-29T01:30:07;100637.09;;;16.03;59.15
72558;BME280;60583;50.094;8.748;2023-05-29T01:32:33;100636.72;;;15.99;59.62
72558;BME280;60583;50.094;8.748;2023-05-29T01:34:59;100617.84;;;15.87;59.91
72558;BME280;60583;50.094;8.748;2023-05-29T01:37:24;100644.38;;;15.66;60.67
72558;BME280;60583;50.094;8.748;2023-05-29T01:39:49;100627.81;;;15.69;60.25
72558;BME280;60583;50.094;8.748;2023-05-29T01:42:15;100645.75;;;15.75;61.16
72558;BME280;60583;50.094;8.748;2023-05-29T01:44:41;100643.63;;;15.77;60.55
72558;BME280;60583;50.094;8.748;2023-05-29T01:47:08;100633.13;;;15.57;60.59
72558;BME280;60583;50.094;8.748;2023-05-29T01:49:34;100643.72;;;15.70;61.12
72558;BME280;60583;50.094;8.748;2023-05-29T01:52:01;100646.78;;;15.56;60.92
72558;BME280;60583;50.094;8.748;2023-05-29T01:54:27;100641.63;;;15.54;61.04
72558;BME280;60583;50.094;8.748;2023-05-29T01:56:52;100634.31;;;15.61;60.80
72558;BME280;60583;50.094;8.748;2023-05-29T01:59:18;100632.31;;;15.57;61.06
72558;BME280;60583;50.094;8.748;2023-05-29T02:01:44;100626.94;;;15.57;61.32
72558;BME280;60583;50.094;8.748;2023-05-29T02:04:10;100633.97;;;15.58;61.44
72558;BME280;60583;50.094;8.748;2023-05-29T02:06:35;100635.75;;;15.46;62.47
72558;BME280;60583;50.094;8.748;2023-05-29T02:09:01;100618.69;;;15.33;62.56
72558;BME280;60583;50.094;8.748;2023-05-29T02:11:27;100620.94;;;15.37;62.88
72558;BME280;60583;50.094;8.748;2023-05-29T02:13:52;100624.22;;;15.39;62.93
72558;BME280;60583;50.094;8.748;2023-05-29T02:16:18;100612.03;;;15.36;62.89
72558;BME280;60583;50.094;8.748;2023-05-29T02:18:48;100613.47;;;15.39;62.17
72558;BME280;60583;50.094;8.748;2023-05-29T02:21:13;100625.13;;;15.32;62.69
72558;BME280;60583;50.094;8.748;2023-05-29T02:23:40;100623.56;;;15.43;62.43
72558;BME280;60583;50.094;8.748;2023-05-29T02:26:05;100620.34;;;15.34;62.46
72558;BME280;60583;50.094;8.748;2023-05-29T02:28:31;100606.66;;;15.36;62.32
72558;BME280;60583;50.094;8.748;2023-05-29T02:30:56;100621.06;;;15.42;62.23
72558;BME280;60583;50.094;8.748;2023-05-29T02:33:22;100620.47;;;15.40;62.13
72558;BME280;60583;50.094;8.748;2023-05-29T02:35:47;100628.88;;;15.50;61.60
72558;BME280;60583;50.094;8.748;2023-05-29T02:38:12;100627.50;;;15.59;61.11
72558;BME280;60583;50.094;8.748;2023-05-29T02:40:38;100608.47;;;15.42;60.91
72558;BME280;60583;50.094;8.748;2023-05-29T02:43:05;100619.22;;;15.42;61.35
72558;BME280;60583;50.094;8.748;2023-05-29T02:45:30;100595.63;;;15.26;61.61
72558;BME280;60583;50.094;8.748;2023-05-29T02:47:56;100603.19;;;15.36;61.45
72558;BME280;60583;50.094;8.748;2023-05-29T02:50:21;100612.50;;;15.51;60.76
72558;BME280;60583;50.094;8.748;2023-05-29T02:52:47;100608.66;;;15.47;61.37
72558;BME280;60583;50.094;8.748;2023-05-29T02:55:12;100623.22;;;15.58;61.01
72558;BME280;60583;50.094;8.748;2023-05-29T02:57:37;100612.28;;;15.34;61.46
72558;BME280;60583;50.094;8.748;2023-05-29T03:00:03;100609.28;;;15.43;61.57
72558;BME280;60583;50.094;8.748;2023-05-29T03:02:32;100613.78;;;15.49;60.98
72558;BME280;60583;50.094;8.748;2023-05-29T03:05:00;100600.69;;;15.34;61.43
72558;BME280;60583;50.094;8.748;2023-05-29T03:07:25;100619.66;;;15.39;61.88
72558;BME280;60583;50.094;8.748;2023-05-29T03:09:51;100611.38;;;15.22;62.57
72558;BME280;60583;50.094;8.748;2023-05-29T03:12:17;100610.84;;;15.32;62.39
72558;BME280;60583;50.094;8.748;2023-05-29T03:14:44;100611.97;;;15.24;62.55
72558;BME280;60583;50.094;8.748;2023-05-29T03:17:09;100617.19;;;15.19;62.44
72558;BME280;60583;50.094;8.748;2023-05-29T03:19:35;100631.81;;;15.23;63.17
72558;BME280;60583;50.094;8.748;2023-05-29T03:22:02;100622.41;;;15.14;63.36
72558;BME280;60583;50.094;8.748;2023-05-29T03:24:27;100634.06;;;15.26;62.85
72558;BME280;60583;50.094;8.748;2023-05-29T03:26:53;100618.00;;;15.02;63.59
72558;BME280;60583;50.094;8.748;2023-05-29T03:29:18;100619.19;;;15.06;63.67
72558;BME280;60583;50.094;8.748;2023-05-29T03:31:43;100635.84;;;15.14;63.54
72558;BME280;60583;50.094;8.748;2023-05-29T03:34:09;100620.91;;;15.00;64.02
72558;BME280;60583;50.094;8.748;2023-05-29T03:36:34;100632.28;;;14.96;64.38
72558;BME280;60583;50.094;8.748;2023-05-29T03:39:02;100636.78;;;15.02;64.28
72558;BME280;60583;50.094;8.748;2023-05-29T03:41:28;100648.97;;;15.04;64.23
72558;BME280;60583;50.094;8.748;2023-05-29T03:43:53;100645.69;;;15.02;64.69
72558;BME280;60583;50.094;8.748;2023-05-29T03:46:18;100631.34;;;14.90;64.79
72558;BME280;60583;50.094;8.748;2023-05-29T03:48:44;100628.81;;;14.95;64.94
72558;BME280;60583;50.094;8.748;2023-05-29T03:51:09;100639.72;;;15.00;64.43
72558;BME280;60583;50.094;8.748;2023-05-29T03:53:35;100638.28;;;14.73;65.51
72558;BME280;60583;50.094;8.748;2023-05-29T03:56:01;100648.91;;;14.86;65.33
72558;BME280;60583;50.094;8.748;2023-05-29T03:58:26;100651.88;;;15.03;65.02
72558;BME280;60583;50.094;8.748;2023-05-29T04:00:51;100662.16;;;15.06;64.96
72558;BME280;60583;50.094;8.748;2023-05-29T04:03:17;100668.69;;;15.16;65.01
72558;BME280;60583;50.094;8.748;2023-05-29T04:05:42;100673.69;;;15.13;65.09
72558;BME280;60583;50.094;8.748;2023-05-29T04:08:08;100675.44;;;15.01;65.44
72558;BME280;60583;50.094;8.748;2023-05-29T04:10:34;100676.66;;;15.05;65.48
72558;BME280;60583;50.094;8.748;2023-05-29T04:13:00;100677.91;;;15.02;65.25
72558;BME280;60583;50.094;8.748;2023-05-29T04:15:27;100687.41;;;15.05;65.27
72558;BME280;60583;50.094;8.748;2023-05-29T04:17:52;100679.94;;;15.07;65.61
72558;BME280;60583;50.094;8.748;2023-05-29T04:20:17;100690.75;;;15.00;66.09
72558;BME280;60583;50.094;8.748;2023-05-29T04:22:43;100695.28;;;15.00;66.30
72558;BME280;60583;50.094;8.748;2023-05-29T04:25:08;100701.19;;;15.08;66.33
72558;BME280;60583;50.094;8.748;2023-05-29T04:27:34;100688.69;;;14.96;66.29
72558;BME280;60583;50.094;8.748;2023-05-29T04:30:06;100716.88;;;15.11;66.35
72558;BME280;60583;50.094;8.748;2023-05-29T04:32:32;100702.13;;;14.96;66.65
72558;BME280;60583;50.094;8.748;2023-05-29T04:34:59;100664.44;;;14.84;66.37
72558;BME280;60583;50.094;8.748;2023-05-29T04:37:28;100712.56;;;15.10;66.58
72558;BME280;60583;50.094;8.748;2023-05-29T04:39:57;100710.34;;;15.25;66.20
72558;BME280;60583;50.094;8.748;2023-05-29T04:42:23;100720.47;;;15.23;66.54
72558;BME280;60583;50.094;8.748;2023-05-29T04:44:51;100731.84;;;15.25;66.35
72558;BME280;60583;50.094;8.748;2023-05-29T04:47:18;100727.78;;;15.16;66.89
72558;BME280;60583;50.094;8.748;2023-05-29T04:49:44;100725.22;;;15.28;66.57
72558;BME280;60583;50.094;8.748;2023-05-29T04:52:14;100717.31;;;15.08;66.73
72558;BME280;60583;50.094;8.748;2023-05-29T04:54:40;100719.34;;;15.13;66.57
72558;BME280;60583;50.094;8.748;2023-05-29T04:57:05;100720.47;;;15.05;67.52
72558;BME280;60583;50.094;8.748;2023-05-29T04:59:31;100744.19;;;15.33;66.96
72558;BME280;60583;50.094;8.748;2023-05-29T05:01:57;100738.16;;;15.13;67.65
72558;BME280;60583;50.094;8.748;2023-05-29T05:04:22;100754.47;;;15.36;67.29
72558;BME280;60583;50.094;8.748;2023-05-29T05:06:47;100759.63;;;15.38;67.60
72558;BME280;60583;50.094;8.748;2023-05-29T05:09:13;100764.78;;;15.46;67.44
72558;BME280;60583;50.094;8.748;2023-05-29T05:11:38;100758.50;;;15.52;67.42
72558;BME280;60583;50.094;8.748;2023-05-29T05:14:03;100746.75;;;15.46;67.68
72558;BME280;60583;50.094;8.748;2023-05-29T05:16:29;100764.41;;;15.60;67.77
72558;BME280;60583;50.094;8.748;2023-05-29T05:18:54;100760.50;;;15.56;67.62
72558;BME280;60583;50.094;8.748;2023-05-29T05:21:19;100772.41;;;15.67;66.88
72558;BME280;60583;50.094;8.748;2023-05-29T05:23:45;100766.00;;;15.68;66.74
72558;BME280;60583;50.094;8.748;2023-05-29T05:26:11;100781.25;;;15.92;67.09
72558;BME280;60583;50.094;8.748;2023-05-29T05:28:36;100780.94;;;15.82;67.27
72558;BME280;60583;50.094;8.748;2023-05-29T05:31:02;100776.59;;;15.99;67.75
72558;BME280;60583;50.094;8.748;2023-05-29T05:33:27;100761.81;;;15.90;67.28
72558;BME280;60583;50.094;8.748;2023-05-29T05:35:53;100778.41;;;16.23;66.84
72558;BME280;60583;50.094;8.748;2023-05-29T05:38:24;100779.75;;;16.14;66.54
72558;BME280;60583;50.094;8.748;2023-05-29T05:40:49;100774.00;;;16.11;66.13
72558;BME280;60583;50.094;8.748;2023-05-29T05:43:15;100777.78;;;16.21;66.17
72558;BME280;60583;50.094;8.748;2023-05-29T05:45:40;100777.34;;;16.24;66.22
72558;BME280;60583;50.094;8.748;2023-05-29T05:48:08;100769.72;;;16.21;65.91
72558;BME280;60583;50.094;8.748;2023-05-29T05:50:33;100781.09;;;16.23;65.97
72558;BME280;60583;50.094;8.748;2023-05-29T05:52:59;100790.13;;;16.29;66.26
72558;BME280;60583;50.094;8.748;2023-05-29T05:55:24;100790.31;;;16.16;66.89
72558;BME280;60583;50.094;8.748;2023-05-29T05:57:51;100777.31;;;16.42;65.98
72558;BME280;60583;50.094;8.748;2023-05-29T06:00:17;100787.72;;;16.57;66.15
72558;BME280;60583;50.094;8.748;2023-05-29T06:02:43;100775.47;;;16.61;65.19
72558;BME280;60583;50.094;8.748;2023-05-29T06:05:10;100772.47;;;16.81;65.42
72558;BME280;60583;50.094;8.748;2023-05-29T06:07:37;100786.56;;;16.94;64.61
72558;BME280;60583;50.094;8.748;2023-05-29T06:10:03;100782.97;;;17.12;64.58
72558;BME280;60583;50.094;8.748;2023-05-29T06:12:29;100780.91;;;17.26;64.89
72558;BME280;60583;50.094;8.748;2023-05-29T06:14:54;100779.72;;;17.33;63.03
72558;BME280;60583;50.094;8.748;2023-05-29T06:17:20;100782.09;;;17.41;62.58
72558;BME280;60583;50.094;8.748;2023-05-29T06:19:46;100790.06;;;17.48;62.45
72558;BME280;60583;50.094;8.748;2023-05-29T06:22:12;100782.47;;;17.68;62.08
72558;BME280;60583;50.094;8.748;2023-05-29T06:24:37;100772.25;;;17.47;61.40
72558;BME280;60583;50.094;8.748;2023-05-29T06:27:02;100786.69;;;17.64;60.97
72558;BME280;60583;50.094;8.748;2023-05-29T06:29:28;100795.50;;;17.71;61.83
72558;BME280;60583;50.094;8.748;2023-05-29T06:31:53;100802.19;;;17.68;61.62
72558;BME280;60583;50.094;8.748;2023-05-29T06:34:19;100794.16;;;17.50;61.73
72558;BME280;60583;50.094;8.748;2023-05-29T06:36:44;100793.63;;;17.71;60.12
72558;BME280;60583;50.094;8.748;2023-05-29T06:39:09;100791.97;;;17.82;60.06
72558;BME280;60583;50.094;8.748;2023-05-29T06:41:35;100793.81;;;17.93;59.48
72558;BME280;60583;50.094;8.748;2023-05-29T06:44:01;100796.75;;;18.03;59.04
72558;BME280;60583;50.094;8.748;2023-05-29T06:46:26;100804.94;;;18.20;59.17
72558;BME280;60583;50.094;8.748;2023-05-29T06:48:51;100782.09;;;17.88;59.09
72558;BME280;60583;50.094;8.748;2023-05-29T06:51:17;100795.25;;;18.35;59.79
72558;BME280;60583;50.094;8.748;2023-05-29T06:53:43;100784.03;;;18.15;58.61
72558;BME280;60583;50.094;8.748;2023-05-29T06:56:08;100788.31;;;18.51;58.42
72558;BME280;60583;50.094;8.748;2023-05-29T06:58:34;100782.69;;;18.53;58.11
72558;BME280;60583;50.094;8.748;2023-05-29T07:00:59;100779.81;;;18.87;58.51
72558;BME280;60583;50.094;8.748;2023-05-29T07:03:26;100791.88;;;18.96;58.09
72558;BME280;60583;50.094;8.748;2023-05-29T07:05:52;100776.00;;;19.00;56.85
72558;BME280;60583;50.094;8.748;2023-05-29T07:08:17;100782.34;;;18.49;56.56
72558;BME280;60583;50.094;8.748;2023-05-29T07:10:43;100797.16;;;18.46;57.54
72558;BME280;60583;50.094;8.748;2023-05-29T07:13:17;100787.66;;;18.72;57.74
72558;BME280;60583;50.094;8.748;2023-05-29T07:15:44;100786.06;;;19.04;58.63
72558;BME280;60583;50.094;8.748;2023-05-29T07:18:09;100805.22;;;19.48;57.40
72558;BME280;60583;50.094;8.748;2023-05-29T07:20:36;100806.44;;;19.73;56.33
72558;BME280;60583;50.094;8.748;2023-05-29T07:23:02;100805.28;;;19.86;55.51
72558;BME280;60583;50.094;8.748;2023-05-29T07:25:29;100805.72;;;20.00;55.73
72558;BME280;60583;50.094;8.748;2023-05-29T07:27:54;100809.06;;;20.07;55.59
72558;BME280;60583;50.094;8.748;2023-05-29T07:30:20;100813.34;;;20.03;54.91
72558;BME280;60583;50.094;8.748;2023-05-29T07:32:45;100800.84;;;20.18;53.90
72558;BME280;60583;50.094;8.748;2023-05-29T07:35:11;100810.19;;;20.27;53.93
72558;BME280;60583;50.094;8.748;2023-05-29T07:37:36;100801.75;;;20.24;53.22
72558;BME280;60583;50.094;8.748;2023-05-29T07:40:02;100805.38;;;20.34;54.00
72558;BME280;60583;50.094;8.748;2023-05-29T07:42:31;100805.22;;;20.41;53.07
72558;BME280;60583;50.094;8.748;2023-05-29T07:44:57;100826.81;;;20.58;53.76
72558;BME280;60583;50.094;8.748;2023-05-29T07:47:24;100820.38;;;20.64;52.90
72558;BME280;60583;50.094;8.748;2023-05-29T07:49:53;100820.75;;;20.51;52.91
72558;BME280;60583;50.094;8.748;2023-05-29T07:52:19;100824.97;;;20.63;52.59
72558;BME280;60583;50.094;8.748;2023-05-29T07:54:44;100820.44;;;20.47;52.49
72558;BME280;60583;50.094;8.748;2023-05-29T07:57:10;100818.56;;;20.48;52.89
72558;BME280;60583;50.094;8.748;2023-05-29T07:59:41;100801.00;;;20.28;53.55
72558;BME280;60583;50.094;8.748;2023-05-29T08:02:08;100821.81;;;20.71;51.51
72558;BME280;60583;50.094;8.748;2023-05-29T08:04:34;100826.25;;;20.17;52.12
72558;BME280;60583;50.094;8.748;2023-05-29T08:07:01;100830.69;;;20.67;51.86
72558;BME280;60583;50.094;8.748;2023-05-29T08:09:28;100813.88;;;20.65;51.81
72558;BME280;60583;50.094;8.748;2023-05-29T08:11:54;100830.41;;;20.90;51.00
72558;BME280;60583;50.094;8.748;2023-05-29T08:14:19;100825.22;;;21.10;51.73
72558;BME280;60583;50.094;8.748;2023-05-29T08:16:45;100819.44;;;21.28;51.07
72558;BME280;60583;50.094;8.748;2023-05-29T08:19:10;100808.06;;;20.78;51.15
72558;BME280;60583;50.094;8.748;2023-05-29T08:21:36;100818.38;;;21.29;51.16
72558;BME280;60583;50.094;8.748;2023-05-29T08:24:05;100809.84;;;21.52;50.15
72558;BME280;60583;50.094;8.748;2023-05-29T08:26:31;100792.66;;;21.79;50.21
72558;BME280;60583;50.094;8.748;2023-05-29T08:28:56;100810.13;;;21.88;49.16
72558;BME280;60583;50.094;8.748;2023-05-29T08:31:22;100807.34;;;21.83;48.53
72558;BME280;60583;50.094;8.748;2023-05-29T08:33:50;100805.75;;;21.50;48.88
72558;BME280;60583;50.094;8.748;2023-05-29T08:36:16;100798.78;;;22.01;48.16
72558;BME280;60583;50.094;8.748;2023-05-29T08:38:42;100803.50;;;22.20;48.69
72558;BME280;60583;50.094;8.748;2023-05-29T08:41:10;100797.88;;;22.37;48.26
72558;BME280;60583;50.094;8.748;2023-05-29T08:43:41;100794.66;;;22.45;49.15
72558;BME280;60583;50.094;8.748;2023-05-29T08:46:07;100805.34;;;22.62;49.14
72558;BME280;60583;50.094;8.748;2023-05-29T08:48:35;100801.00;;;22.76;49.43
72558;BME280;60583;50.094;8.748;2023-05-29T08:51:03;100796.41;;;22.86;48.01
72558;BME280;60583;50.094;8.748;2023-05-29T08:53:29;100791.53;;;22.94;47.37
72558;BME280;60583;50.094;8.748;2023-05-29T08:55:57;100799.44;;;23.20;47.49
72558;BME280;60583;50.094;8.748;2023-05-29T08:58:23;100798.09;;;23.23;47.23
72558;BME280;60583;50.094;8.748;2023-05-29T09:00:49;100796.22;;;23.59;46.87
72558;BME280;60583;50.094;8.748;2023-05-29T09:03:16;100796.75;;;23.45;47.68
72558;BME280;60583;50.094;8.748;2023-05-29T09:05:43;100792.66;;;23.58;46.81
72558;BME280;60583;50.094;8.748;2023-05-29T09:08:10;100806.84;;;23.45;46.09
72558;BME280;60583;50.094;8.748;2023-05-29T09:10:44;100801.38;;;23.55;46.12
72558;BME280;60583;50.094;8.748;2023-05-29T09:13:13;100790.19;;;23.62;44.94
72558;BME280;60583;50.094;8.748;2023-05-29T09:15:39;100803.25;;;23.34;45.39
72558;BME280;60583;50.094;8.748;2023-05-29T09:18:05;100782.59;;;23.59;46.21
72558;BME280;60583;50.094;8.748;2023-05-29T09:20:31;100777.66;;;23.81;44.40
72558;BME280;60583;50.094;8.748;2023-05-29T09:22:58;100802.94;;;24.12;44.40
72558;BME280;60583;50.094;8.748;2023-05-29T09:25:25;100800.19;;;24.17;44.27
72558;BME280;60583;50.094;8.748;2023-05-29T09:28:02;100808.34;;;24.27;43.58
72558;BME280;60583;50.094;8.748;2023-05-29T09:30:34;100792.28;;;24.00;44.35
72558;BME280;60583;50.094;8.748;2023-05-29T09:33:01;100801.78;;;24.28;43.54
72558;BME280;60583;50.094;8.748;2023-05-29T09:35:56;100803.34;;;24.44;42.83
72558;BME280;60583;50.094;8.748;2023-05-29T09:38:21;100807.22;;;24.28;43.33
72558;BME280;60583;50.094;8.748;2023-05-29T09:40:47;100807.06;;;24.63;43.39
72558;BME280;60583;50.094;8.748;2023-05-29T09:43:16;100798.28;;;24.71;42.83
72558;BME280;60583;50.094;8.748;2023-05-29T09:45:47;100799.91;;;24.77;42.63
72558;BME280;60583;50.094;8.748;2023-05-29T09:48:14;100793.03;;;24.90;43.83
72558;BME280;60583;50.094;8.748;2023-05-29T09:50:41;100792.25;;;24.84;42.51
72558;BME280;60583;50.094;8.748;2023-05-29T09:53:23;100801.53;;;25.22;42.36
72558;BME280;60583;50.094;8.748;2023-05-29T09:55:50;100778.28;;;25.24;41.10
72558;BME280;60583;50.094;8.748;2023-05-29T09:58:19;100788.16;;;25.54;40.66
72558;BME280;60583;50.094;8.748;2023-05-29T10:00:45;100785.69;;;25.58;40.51
72558;BME280;60583;50.094;8.748;2023-05-29T10:03:13;100775.38;;;25.50;38.86
72558;BME280;60583;50.094;8.748;2023-05-29T10:05:42;100780.59;;;25.75;39.75
72558;BME280;60583;50.094;8.748;2023-05-29T10:08:12;100775.31;;;24.87;38.83
72558;BME280;60583;50.094;8.748;2023-05-29T10:10:40;100780.13;;;24.95;39.53
72558;BME280;60583;50.094;8.748;2023-05-29T10:13:12;100769.81;;;25.60;39.42
72558;BME280;60583;50.094;8.748;2023-05-29T10:15:41;100775.06;;;26.04;37.94
72558;BME280;60583;50.094;8.748;2023-05-29T10:18:23;100771.09;;;26.38;39.51
72558;BME280;60583;50.094;8.748;2023-05-29T10:20:50;100782.56;;;26.83;37.26
72558;BME280;60583;50.094;8.748;2023-05-29T10:23:20;100778.47;;;26.80;36.60
72558;BME280;60583;50.094;8.748;2023-05-29T10:25:51;100764.44;;;27.19;36.78
72558;BME280;60583;50.094;8.748;2023-05-29T10:28:17;100733.44;;;27.37;36.73
72558;BME280;60583;50.094;8.748;2023-05-29T10:30:51;100770.69;;;27.38;34.89
72558;BME280;60583;50.094;8.748;2023-05-29T10:38:29;100773.59;;;26.96;35.08
72558;BME280;60583;50.094;8.748;2023-05-29T10:40:55;100770.47;;;27.67;35.15
72558;BME280;60583;50.094;8.748;2023-05-29T10:43:30;100778.41;;;27.96;34.79
72558;BME280;60583;50.094;8.748;2023-05-29T10:45:57;100772.84;;;28.28;35.54
72558;BME280;60583;50.094;8.748;2023-05-29T10:50:54;100770.31;;;28.18;33.58
72558;BME280;60583;50.094;8.748;2023-05-29T10:53:24;100771.03;;;28.10;35.29
72558;BME280;60583;50.094;8.748;2023-05-29T10:55:51;100758.28;;;28.55;34.34
72558;BME280;60583;50.094;8.748;2023-05-29T10:58:24;100775.06;;;28.67;33.73
72558;BME280;60583;50.094;8.748;2023-05-29T11:00:52;100776.13;;;28.79;33.93
72558;BME280;60583;50.094;8.748;2023-05-29T11:03:21;100774.75;;;28.90;33.93
72558;BME280;60583;50.094;8.748;2023-05-29T11:08:41;100764.72;;;28.86;33.57
72558;BME280;60583;50.094;8.748;2023-05-29T11:11:11;100762.53;;;28.74;32.85
72558;BME280;60583;50.094;8.748;2023-05-29T11:13:37;100761.59;;;29.01;32.70
72558;BME280;60583;50.094;8.748;2023-05-29T11:16:12;100753.56;;;28.55;31.88
72558;BME280;60583;50.094;8.748;2023-05-29T11:18:42;100748.66;;;28.79;33.46
72558;BME280;60583;50.094;8.748;2023-05-29T11:23:41;100739.50;;;28.34;34.14
72558;BME280;60583;50.094;8.748;2023-05-29T11:26:08;100741.91;;;28.85;34.00
72558;BME280;60583;50.094;8.748;2023-05-29T11:28:35;100744.28;;;28.29;33.13
72558;BME280;60583;50.094;8.748;2023-05-29T11:31:08;100738.81;;;28.15;32.92
72558;BME280;60583;50.094;8.748;2023-05-29T11:33:35;100745.78;;;28.48;33.34
72558;BME280;60583;50.094;8.748;2023-05-29T11:36:04;100736.50;;;28.58;31.03
72558;BME280;60583;50.094;8.748;2023-05-29T11:38:32;100735.19;;;28.91;31.70
72558;BME280;60583;50.094;8.748;2023-05-29T11:41:01;100738.41;;;28.71;32.94
72558;BME280;60583;50.094;8.748;2023-05-29T11:43:26;100746.41;;;29.03;32.39
72558;BME280;60583;50.094;8.748;2023-05-29T11:45:52;100732.19;;;29.24;31.34
72558;BME280;60583;50.094;8.748;2023-05-29T11:48:17;100735.91;;;29.50;31.57
72558;BME280;60583;50.094;8.748;2023-05-29T11:50:43;100688.13;;;28.62;30.20
72558;BME280;60583;50.094;8.748;2023-05-29T11:53:09;100736.00;;;29.36;31.59
72558;BME280;60583;50.094;8.748;2023-05-29T11:55:34;100737.69;;;28.79;30.44
72558;BME280;60583;50.094;8.748;2023-05-29T11:58:02;100737.59;;;28.08;27.71
72558;BME280;60583;50.094;8.748;2023-05-29T12:00:35;100732.47;;;28.78;28.30
72558;BME280;60583;50.094;8.748;2023-05-29T12:03:02;100731.22;;;28.97;27.08
72558;BME280;60583;50.094;8.748;2023-05-29T12:05:32;100722.03;;;27.62;27.03
72558;BME280;60583;50.094;8.748;2023-05-29T12:07:58;100724.41;;;27.69;26.69
72558;BME280;60583;50.094;8.748;2023-05-29T12:10:27;100718.44;;;27.02;27.01
72558;BME280;60583;50.094;8.748;2023-05-29T12:12:54;100723.38;;;28.06;26.74
72558;BME280;60583;50.094;8.748;2023-05-29T12:15:21;100725.69;;;26.75;27.34
72558;BME280;60583;50.094;8.748;2023-05-29T12:17:50;100717.88;;;26.49;27.76
72558;BME280;60583;50.094;8.748;2023-05-29T12:20:17;100722.31;;;27.15;28.71
72558;BME280;60583;50.094;8.748;2023-05-29T12:22:44;100729.63;;;27.52;28.14
72558;BME280;60583;50.094;8.748;2023-05-29T12:25:11;100721.31;;;27.98;28.54
72558;BME280;60583;50.094;8.748;2023-05-29T12:27:38;100716.06;;;28.15;27.17
72558;BME280;60583;50.094;8.748;2023-05-29T12:30:12;100714.19;;;27.42;27.65
72558;BME280;60583;50.094;8.748;2023-05-29T12:32:42;100710.06;;;27.72;28.67
72558;BME280;60583;50.094;8.748;2023-05-29T12:35:12;100714.25;;;27.37;27.77
72558;BME280;60583;50.094;8.748;2023-05-29T12:40:22;100705.13;;;26.96;29.69
72558;BME280;60583;50.094;8.748;2023-05-29T12:42:53;100712.91;;;26.09;29.29
72558;BME280;60583;50.094;8.748;2023-05-29T12:45:19;100704.16;;;25.88;29.94
72558;BME280;60583;50.094;8.748;2023-05-29T12:47:55;100710.25;;;26.04;30.28
72558;BME280;60583;50.094;8.748;2023-05-29T12:50:30;100705.44;;;25.96;29.97
72558;BME280;60583;50.094;8.748;2023-05-29T12:53:06;100713.13;;;26.18;30.52
72558;BME280;60583;50.094;8.748;2023-05-29T12:55:42;100717.59;;;25.85;30.61
72558;BME280;60583;50.094;8.748;2023-05-29T12:58:15;100709.31;;;25.43;30.87
72558;BME280;60583;50.094;8.748;2023-05-29T13:00:43;100696.22;;;25.40;31.00
72558;BME280;60583;50.094;8.748;2023-05-29T13:03:09;100700.69;;;25.59;31.10
72558;BME280;60583;50.094;8.748;2023-05-29T13:05:36;100704.47;;;25.87;30.57
72558;BME280;60583;50.094;8.748;2023-05-29T13:08:02;100711.75;;;25.73;30.08